sensor_id;sensor_type;location;lat;lon;timestamp;pressure;altitude;pressure_sealevel;temperature;humidity
60319;BME280;46163;52.306;5.634;2023-05-14T00:01:53;101957.91;;;20.21;58.21
60319;BME280;46163;52.306;5.634;2023-05-14T00:04:21;101956.03;;;20.21;58.16
60319;BME280;46163;52.306;5.634;2023-05-14T00:06:47;101950.03;;;20.19;57.96
60319;BME280;46163;52.306;5.634;2023-05-14T00:09:13;101948.41;;;20.18;58.24
60319;BME280;46163;52.306;5.634;2023-05-14T00:11:38;101945.94;;;20.17;58.07
60319;BME280;46163;52.306;5.634;2023-05-14T00:14:04;101943.44;;;20.15;58.21
60319;BME280;46163;52.306;5.634;2023-05-14T00:16:29;101937.72;;;20.12;58.23
60319;BME280;46163;52.306;5.634;2023-05-14T00:18:57;101934.75;;;20.13;58.33
60319;BME280;46163;52.306;5.634;2023-05-14T00:21:23;101924.69;;;20.09;58.24
60319;BME280;46163;52.306;5.634;2023-05-14T00:23:48;101930.66;;;20.11;58.23
60319;BME280;46163;52.306;5.634;2023-05-14T00:26:16;101923.63;;;20.10;58.24
60319;BME280;46163;52.306;5.634;2023-05-14T00:28:41;101915.75;;;20.08;58.37
60319;BME280;46163;52.306;5.634;2023-05-14T00:31:07;101914.94;;;20.08;58.35
60319;BME280;46163;52.306;5.634;2023-05-14T00:33:32;101916.44;;;20.03;58.29
60319;BME280;46163;52.306;5.634;2023-05-14T00:35:58;101916.22;;;20.05;58.33
60319;BME280;46163;52.306;5.634;2023-05-14T00:38:23;101906.47;;;20.04;58.25
60319;BME280;46163;52.306;5.634;2023-05-14T00:40:52;101910.22;;;20.03;58.30
60319;BME280;46163;52.306;5.634;2023-05-14T00:43:20;101905.88;;;20.02;58.39
60319;BME280;46163;52.306;5.634;2023-05-14T00:45:49;101900.72;;;20.00;58.41
60319;BME280;46163;52.306;5.634;2023-05-14T00:48:15;101896.03;;;19.96;58.40
60319;BME280;46163;52.306;5.634;2023-05-14T00:50:44;101897.19;;;20.00;58.45
60319;BME280;46163;52.306;5.634;2023-05-14T00:53:10;101902.00;;;19.98;58.33
60319;BME280;46163;52.306;5.634;2023-05-14T00:55:40;101897.66;;;19.97;58.36
60319;BME280;46163;52.306;5.634;2023-05-14T00:58:10;101897.66;;;19.97;58.48
60319;BME280;46163;52.306;5.634;2023-05-14T01:00:37;101888.97;;;19.95;58.45
60319;BME280;46163;52.306;5.634;2023-05-14T01:03:03;101896.25;;;19.94;58.63
60319;BME280;46163;52.306;5.634;2023-05-14T01:05:38;101888.41;;;19.93;58.56
60319;BME280;46163;52.306;5.634;2023-05-14T01:11:28;101886.19;;;19.90;58.55
60319;BME280;46163;52.306;5.634;2023-05-14T01:16:32;101889.91;;;19.89;58.55
60319;BME280;46163;52.306;5.634;2023-05-14T01:18:59;101882.88;;;19.88;58.57
60319;BME280;46163;52.306;5.634;2023-05-14T01:21:35;101889.34;;;19.87;58.55
60319;BME280;46163;52.306;5.634;2023-05-14T01:24:02;101893.91;;;19.86;58.54
60319;BME280;46163;52.306;5.634;2023-05-14T01:26:27;101889.81;;;19.84;58.44
60319;BME280;46163;52.306;5.634;2023-05-14T01:31:44;101880.53;;;19.80;58.68
60319;BME280;46163;52.306;5.634;2023-05-14T01:34:11;101882.16;;;19.81;58.55
60319;BME280;46163;52.306;5.634;2023-05-14T01:36:39;101882.41;;;19.79;58.56
60319;BME280;46163;52.306;5.634;2023-05-14T01:39:06;101884.28;;;19.79;58.65
60319;BME280;46163;52.306;5.634;2023-05-14T01:41:35;101878.31;;;19.76;58.75
60319;BME280;46163;52.306;5.634;2023-05-14T01:44:02;101885.59;;;19.76;58.66
60319;BME280;46163;52.306;5.634;2023-05-14T01:46:33;101884.78;;;19.75;58.71
60319;BME280;46163;52.306;5.634;2023-05-14T01:48:59;101877.16;;;19.72;58.83
60319;BME280;46163;52.306;5.634;2023-05-14T01:51:24;101879.63;;;19.74;58.74
60319;BME280;46163;52.306;5.634;2023-05-14T01:53:50;101874.47;;;19.72;58.77
60319;BME280;46163;52.306;5.634;2023-05-14T01:56:19;101867.38;;;19.71;58.73
60319;BME280;46163;52.306;5.634;2023-05-14T01:58:48;101863.28;;;19.69;58.68
60319;BME280;46163;52.306;5.634;2023-05-14T02:01:14;101869.28;;;19.71;58.75
60319;BME280;46163;52.306;5.634;2023-05-14T02:03:39;101857.88;;;19.69;58.74
60319;BME280;46163;52.306;5.634;2023-05-14T02:06:05;101840.66;;;19.58;58.75
60319;BME280;46163;52.306;5.634;2023-05-14T02:08:30;101852.97;;;19.66;58.82
60319;BME280;46163;52.306;5.634;2023-05-14T02:10:56;101848.84;;;19.63;58.87
60319;BME280;46163;52.306;5.634;2023-05-14T02:13:21;101852.38;;;19.64;58.82
60319;BME280;46163;52.306;5.634;2023-05-14T02:15:48;101854.25;;;19.63;58.77
60319;BME280;46163;52.306;5.634;2023-05-14T02:18:13;101852.59;;;19.62;58.64
60319;BME280;46163;52.306;5.634;2023-05-14T02:20:38;101849.31;;;19.60;58.82
60319;BME280;46163;52.306;5.634;2023-05-14T02:23:04;101842.28;;;19.59;58.81
60319;BME280;46163;52.306;5.634;2023-05-14T02:25:29;101852.03;;;19.60;58.80
60319;BME280;46163;52.306;5.634;2023-05-14T02:27:55;101851.44;;;19.58;58.90
60319;BME280;46163;52.306;5.634;2023-05-14T02:30:20;101861.44;;;19.58;58.86
60319;BME280;46163;52.306;5.634;2023-05-14T02:32:46;101855.22;;;19.57;58.86
60319;BME280;46163;52.306;5.634;2023-05-14T02:35:11;101846.50;;;19.55;58.86
60319;BME280;46163;52.306;5.634;2023-05-14T02:37:37;101846.50;;;19.55;58.80
60319;BME280;46163;52.306;5.634;2023-05-14T02:40:03;101844.81;;;19.54;58.78
60319;BME280;46163;52.306;5.634;2023-05-14T02:42:28;101830.53;;;19.42;58.85
60319;BME280;46163;52.306;5.634;2023-05-14T02:44:54;101834.50;;;19.51;58.79
60319;BME280;46163;52.306;5.634;2023-05-14T02:47:19;101840.97;;;19.50;58.96
60319;BME280;46163;52.306;5.634;2023-05-14T02:49:45;101834.75;;;19.49;58.93
60319;BME280;46163;52.306;5.634;2023-05-14T02:52:12;101836.63;;;19.49;58.92
60319;BME280;46163;52.306;5.634;2023-05-14T02:54:38;101834.41;;;19.46;58.99
60319;BME280;46163;52.306;5.634;2023-05-14T02:57:06;101832.75;;;19.45;58.88
60319;BME280;46163;52.306;5.634;2023-05-14T02:59:31;101840.84;;;19.45;59.23
60319;BME280;46163;52.306;5.634;2023-05-14T03:01:56;101840.03;;;19.44;59.04
60319;BME280;46163;52.306;5.634;2023-05-14T03:04:22;101831.34;;;19.42;58.90
60319;BME280;46163;52.306;5.634;2023-05-14T03:06:47;101836.75;;;19.42;59.01
60319;BME280;46163;52.306;5.634;2023-05-14T03:09:13;101834.28;;;19.41;58.96
60319;BME280;46163;52.306;5.634;2023-05-14T03:11:40;101834.28;;;19.41;59.04
60319;BME280;46163;52.306;5.634;2023-05-14T03:14:06;101834.75;;;19.38;59.10
60319;BME280;46163;52.306;5.634;2023-05-14T03:16:31;101838.28;;;19.38;59.09
60319;BME280;46163;52.306;5.634;2023-05-14T03:18:57;101835.78;;;19.37;59.17
60319;BME280;46163;52.306;5.634;2023-05-14T03:21:22;101836.03;;;19.35;59.08
60319;BME280;46163;52.306;5.634;2023-05-14T03:23:48;101837.09;;;19.34;59.16
60319;BME280;46163;52.306;5.634;2023-05-14T03:26:13;101838.97;;;19.34;58.99
60319;BME280;46163;52.306;5.634;2023-05-14T03:28:39;101838.38;;;19.32;59.25
60319;BME280;46163;52.306;5.634;2023-05-14T03:31:05;101834.88;;;19.31;59.08
60319;BME280;46163;52.306;5.634;2023-05-14T03:33:31;101836.50;;;19.32;59.29
60319;BME280;46163;52.306;5.634;2023-05-14T03:35:56;101829.09;;;19.28;59.21
60319;BME280;46163;52.306;5.634;2023-05-14T03:38:21;101825.38;;;19.29;59.04
60319;BME280;46163;52.306;5.634;2023-05-14T03:40:47;101831.81;;;19.28;59.28
60319;BME280;46163;52.306;5.634;2023-05-14T03:43:14;101828.28;;;19.27;59.10
60319;BME280;46163;52.306;5.634;2023-05-14T03:45:40;101826.66;;;19.26;59.05
60319;BME280;46163;52.306;5.634;2023-05-14T03:48:08;101825.59;;;19.27;59.13
60319;BME280;46163;52.306;5.634;2023-05-14T03:50:36;101820.44;;;19.26;59.08
60319;BME280;46163;52.306;5.634;2023-05-14T03:53:01;101818.78;;;19.25;59.09
60319;BME280;46163;52.306;5.634;2023-05-14T03:55:29;101822.53;;;19.24;59.17
60319;BME280;46163;52.306;5.634;2023-05-14T03:57:54;101818.22;;;19.23;59.03
60319;BME280;46163;52.306;5.634;2023-05-14T04:00:22;101818.44;;;19.21;59.04
60319;BME280;46163;52.306;5.634;2023-05-14T04:02:47;101810.56;;;19.19;59.12
60319;BME280;46163;52.306;5.634;2023-05-14T04:05:13;101809.41;;;19.15;58.99
60319;BME280;46163;52.306;5.634;2023-05-14T04:07:38;101814.31;;;19.18;59.07
60319;BME280;46163;52.306;5.634;2023-05-14T04:10:04;101808.91;;;19.18;59.16
60319;BME280;46163;52.306;5.634;2023-05-14T04:12:30;101812.69;;;19.17;59.22
60319;BME280;46163;52.306;5.634;2023-05-14T04:14:56;101811.03;;;19.16;59.09
60319;BME280;46163;52.306;5.634;2023-05-14T04:17:22;101813.75;;;19.16;58.99
60319;BME280;46163;52.306;5.634;2023-05-14T04:19:47;101807.63;;;19.09;59.25
60319;BME280;46163;52.306;5.634;2023-05-14T04:22:13;101814.78;;;19.15;59.05
60319;BME280;46163;52.306;5.634;2023-05-14T04:24:38;101808.81;;;19.13;59.10
60319;BME280;46163;52.306;5.634;2023-05-14T04:27:04;101803.41;;;19.13;59.20
60319;BME280;46163;52.306;5.634;2023-05-14T04:29:31;101807.19;;;19.12;59.05
60319;BME280;46163;52.306;5.634;2023-05-14T04:31:56;101807.19;;;19.12;59.14
60319;BME280;46163;52.306;5.634;2023-05-14T04:34:22;101806.34;;;19.12;59.14
60319;BME280;46163;52.306;5.634;2023-05-14T04:36:47;101813.63;;;19.11;59.15
60319;BME280;46163;52.306;5.634;2023-05-14T04:39:13;101793.41;;;19.02;58.90
60319;BME280;46163;52.306;5.634;2023-05-14T04:41:39;101803.88;;;19.10;59.06
60319;BME280;46163;52.306;5.634;2023-05-14T04:44:05;101806.56;;;19.10;59.28
60319;BME280;46163;52.306;5.634;2023-05-14T04:46:31;101806.56;;;19.10;59.05
60319;BME280;46163;52.306;5.634;2023-05-14T04:48:56;101813.03;;;19.09;58.99
60319;BME280;46163;52.306;5.634;2023-05-14T04:51:22;101817.34;;;19.10;59.09
60319;BME280;46163;52.306;5.634;2023-05-14T04:53:47;101813.03;;;19.09;59.25
60319;BME280;46163;52.306;5.634;2023-05-14T04:56:13;101821.13;;;19.09;58.97
60319;BME280;46163;52.306;5.634;2023-05-14T04:58:38;101815.72;;;19.09;59.22
60319;BME280;46163;52.306;5.634;2023-05-14T05:01:04;101814.09;;;19.08;59.06
60319;BME280;46163;52.306;5.634;2023-05-14T05:03:30;101804.00;;;19.04;59.03
60319;BME280;46163;52.306;5.634;2023-05-14T05:05:58;101807.88;;;19.08;59.05
60319;BME280;46163;52.306;5.634;2023-05-14T05:08:24;101810.56;;;19.08;58.93
60319;BME280;46163;52.306;5.634;2023-05-14T05:10:50;101810.81;;;19.06;59.00
60319;BME280;46163;52.306;5.634;2023-05-14T05:13:15;101809.97;;;19.06;59.08
60319;BME280;46163;52.306;5.634;2023-05-14T05:15:42;101813.16;;;19.03;59.11
60319;BME280;46163;52.306;5.634;2023-05-14T05:18:10;101827.00;;;19.06;59.06
60319;BME280;46163;52.306;5.634;2023-05-14T05:20:35;101822.66;;;19.05;59.01
60319;BME280;46163;52.306;5.634;2023-05-14T05:23:00;101825.34;;;19.05;59.00
60319;BME280;46163;52.306;5.634;2023-05-14T05:25:26;101821.00;;;19.04;59.12
60319;BME280;46163;52.306;5.634;2023-05-14T05:27:52;101818.56;;;19.03;58.89
60319;BME280;46163;52.306;5.634;2023-05-14T05:30:17;101831.81;;;19.04;59.03
60319;BME280;46163;52.306;5.634;2023-05-14T05:32:43;101832.63;;;19.05;59.07
60319;BME280;46163;52.306;5.634;2023-05-14T05:35:09;101818.66;;;18.96;59.02
60319;BME280;46163;52.306;5.634;2023-05-14T05:37:34;101830.97;;;19.04;58.74
60319;BME280;46163;52.306;5.634;2023-05-14T05:40:00;101809.13;;;18.93;59.03
60319;BME280;46163;52.306;5.634;2023-05-14T05:42:25;101827.47;;;19.03;58.97
60319;BME280;46163;52.306;5.634;2023-05-14T05:44:51;101818.56;;;19.03;59.11
60319;BME280;46163;52.306;5.634;2023-05-14T05:47:16;101827.47;;;19.03;58.92
60319;BME280;46163;52.306;5.634;2023-05-14T05:49:42;101828.28;;;19.04;59.05
60319;BME280;46163;52.306;5.634;2023-05-14T05:52:07;101825.78;;;19.02;58.91
60319;BME280;46163;52.306;5.634;2023-05-14T05:54:33;101828.28;;;19.04;58.96
60319;BME280;46163;52.306;5.634;2023-05-14T05:56:58;101825.59;;;19.04;59.02
60319;BME280;46163;52.306;5.634;2023-05-14T05:59:24;101825.59;;;19.04;58.81
60319;BME280;46163;52.306;5.634;2023-05-14T06:01:49;101826.66;;;19.03;58.83
60319;BME280;46163;52.306;5.634;2023-05-14T06:04:15;101827.47;;;19.03;58.84
60319;BME280;46163;52.306;5.634;2023-05-14T06:06:40;101830.16;;;19.03;58.95
60319;BME280;46163;52.306;5.634;2023-05-14T06:09:06;101836.38;;;19.04;58.80
60319;BME280;46163;52.306;5.634;2023-05-14T06:11:33;101831.56;;;19.06;58.83
60319;BME280;46163;52.306;5.634;2023-05-14T06:13:58;101831.56;;;19.06;58.86
60319;BME280;46163;52.306;5.634;2023-05-14T06:16:24;101813.97;;;19.03;58.66
60319;BME280;46163;52.306;5.634;2023-05-14T06:18:49;101810.81;;;19.06;58.67
60319;BME280;46163;52.306;5.634;2023-05-14T06:21:16;101819.47;;;19.08;58.98
60319;BME280;46163;52.306;5.634;2023-05-14T06:23:41;101815.72;;;19.09;58.89
60319;BME280;46163;52.306;5.634;2023-05-14T06:26:09;101823.81;;;19.09;58.69
60319;BME280;46163;52.306;5.634;2023-05-14T06:28:35;101833.53;;;19.10;58.63
60319;BME280;46163;52.306;5.634;2023-05-14T06:31:00;101817.72;;;19.14;58.73
60319;BME280;46163;52.306;5.634;2023-05-14T06:33:26;101823.47;;;19.17;58.88
60319;BME280;46163;52.306;5.634;2023-05-14T06:35:56;101834.84;;;19.19;58.76
60319;BME280;46163;52.306;5.634;2023-05-14T06:38:24;101832.53;;;19.23;58.94
60319;BME280;46163;52.306;5.634;2023-05-14T06:40:50;101832.28;;;19.25;58.91
60319;BME280;46163;52.306;5.634;2023-05-14T06:43:19;101831.47;;;19.24;58.90
60319;BME280;46163;52.306;5.634;2023-05-14T06:45:48;101824.66;;;19.22;59.04
60319;BME280;46163;52.306;5.634;2023-05-14T06:48:14;101839.31;;;19.26;58.88
60319;BME280;46163;52.306;5.634;2023-05-14T06:50:39;101829.91;;;19.28;58.93
60319;BME280;46163;52.306;5.634;2023-05-14T06:53:04;101836.16;;;19.29;58.71
60319;BME280;46163;52.306;5.634;2023-05-14T06:55:30;101821.63;;;19.30;58.88
60319;BME280;46163;52.306;5.634;2023-05-14T06:57:55;101818.69;;;19.31;58.75
60319;BME280;46163;52.306;5.634;2023-05-14T07:00:21;101820.31;;;19.32;58.72
60319;BME280;46163;52.306;5.634;2023-05-14T07:02:46;101822.19;;;19.32;58.66
60319;BME280;46163;52.306;5.634;2023-05-14T07:05:12;101815.59;;;19.28;58.74
60319;BME280;46163;52.306;5.634;2023-05-14T07:07:40;101823.97;;;19.38;58.73
60319;BME280;46163;52.306;5.634;2023-05-14T07:10:05;101832.06;;;19.38;58.62
60319;BME280;46163;52.306;5.634;2023-05-14T07:12:32;101822.66;;;19.40;59.01
60319;BME280;46163;52.306;5.634;2023-05-14T07:14:57;101815.97;;;19.43;59.09
60319;BME280;46163;52.306;5.634;2023-05-14T07:17:23;101813.84;;;19.45;59.48
60319;BME280;46163;52.306;5.634;2023-05-14T07:19:49;101816.53;;;19.45;59.64
60319;BME280;46163;52.306;5.634;2023-05-14T07:22:15;101823.94;;;19.49;59.50
60319;BME280;46163;52.306;5.634;2023-05-14T07:24:40;101815.50;;;19.46;59.21
60319;BME280;46163;52.306;5.634;2023-05-14T07:27:06;101817.63;;;19.56;59.51
60319;BME280;46163;52.306;5.634;2023-05-14T07:29:35;101816.34;;;19.58;59.49
60319;BME280;46163;52.306;5.634;2023-05-14T07:32:00;101812.09;;;19.62;59.22
60319;BME280;46163;52.306;5.634;2023-05-14T07:34:26;101806.59;;;19.57;59.49
60319;BME280;46163;52.306;5.634;2023-05-14T07:36:51;101819.75;;;19.65;59.14
60319;BME280;46163;52.306;5.634;2023-05-14T07:39:17;101818.69;;;19.66;59.09
60319;BME280;46163;52.306;5.634;2023-05-14T07:41:42;101793.69;;;19.59;58.89
60319;BME280;46163;52.306;5.634;2023-05-14T07:44:08;101805.28;;;19.71;58.67
60319;BME280;46163;52.306;5.634;2023-05-14T07:46:34;101801.53;;;19.72;58.73
60319;BME280;46163;52.306;5.634;2023-05-14T07:48:59;101804.00;;;19.74;58.51
60319;BME280;46163;52.306;5.634;2023-05-14T07:51:27;101803.38;;;19.72;58.66
60319;BME280;46163;52.306;5.634;2023-05-14T07:53:54;101810.22;;;19.74;58.57
60319;BME280;46163;52.306;5.634;2023-05-14T07:56:23;101802.69;;;19.76;58.61
60319;BME280;46163;52.306;5.634;2023-05-14T07:58:49;101814.31;;;19.77;58.64
60319;BME280;46163;52.306;5.634;2023-05-14T08:01:15;101804.31;;;19.77;58.57
60319;BME280;46163;52.306;5.634;2023-05-14T08:03:41;101805.38;;;19.76;58.32
60319;BME280;46163;52.306;5.634;2023-05-14T08:06:06;101803.19;;;19.73;58.41
60319;BME280;46163;52.306;5.634;2023-05-14T08:08:34;101798.94;;;19.77;58.27
60319;BME280;46163;52.306;5.634;2023-05-14T08:11:01;101808.66;;;19.79;58.34
60319;BME280;46163;52.306;5.634;2023-05-14T08:13:27;101811.38;;;19.79;58.25
60319;BME280;46163;52.306;5.634;2023-05-14T08:15:55;101805.97;;;19.79;58.07
60319;BME280;46163;52.306;5.634;2023-05-14T08:18:20;101806.78;;;19.79;58.00
60319;BME280;46163;52.306;5.634;2023-05-14T08:20:46;101793.63;;;19.83;58.16
60319;BME280;46163;52.306;5.634;2023-05-14T08:23:12;101796.91;;;19.85;58.16
60319;BME280;46163;52.306;5.634;2023-05-14T08:25:38;101801.50;;;19.84;58.01
60319;BME280;46163;52.306;5.634;2023-05-14T08:28:03;101795.97;;;19.79;57.92
60319;BME280;46163;52.306;5.634;2023-05-14T08:30:29;101811.56;;;19.89;58.00
60319;BME280;46163;52.306;5.634;2023-05-14T08:32:55;101810.53;;;19.90;57.74
60319;BME280;46163;52.306;5.634;2023-05-14T08:35:20;101804.66;;;19.93;57.55
60319;BME280;46163;52.306;5.634;2023-05-14T08:37:50;101807.69;;;19.96;57.69
60319;BME280;46163;52.306;5.634;2023-05-14T08:40:16;101803.69;;;19.99;57.57
60319;BME280;46163;52.306;5.634;2023-05-14T08:42:44;101800.41;;;19.97;57.55
60319;BME280;46163;52.306;5.634;2023-05-14T08:45:18;101800.50;;;20.02;57.43
60319;BME280;46163;52.306;5.634;2023-05-14T08:47:47;101798.38;;;20.04;57.19
60319;BME280;46163;52.306;5.634;2023-05-14T08:50:14;101781.59;;;20.02;57.18
60319;BME280;46163;52.306;5.634;2023-05-14T08:52:39;101784.06;;;20.03;57.25
60319;BME280;46163;52.306;5.634;2023-05-14T08:55:05;101795.78;;;20.09;57.19
60319;BME280;46163;52.306;5.634;2023-05-14T08:57:32;101790.97;;;20.11;57.11
60319;BME280;46163;52.306;5.634;2023-05-14T08:59:59;101789.06;;;20.12;57.18
60319;BME280;46163;52.306;5.634;2023-05-14T09:02:29;101782.97;;;20.16;56.98
60319;BME280;46163;52.306;5.634;2023-05-14T09:04:57;101781.91;;;20.17;56.93
60319;BME280;46163;52.306;5.634;2023-05-14T09:07:23;101778.69;;;20.20;56.82
60319;BME280;46163;52.306;5.634;2023-05-14T09:09:50;101774.94;;;20.21;56.84
60319;BME280;46163;52.306;5.634;2023-05-14T09:12:16;101778.81;;;20.25;56.53
60319;BME280;46163;52.306;5.634;2023-05-14T09:14:42;101774.78;;;20.28;56.58
60319;BME280;46163;52.306;5.634;2023-05-14T09:17:08;101771.03;;;20.29;56.49
60319;BME280;46163;52.306;5.634;2023-05-14T09:19:39;101772.19;;;20.33;56.47
60319;BME280;46163;52.306;5.634;2023-05-14T09:22:08;101761.13;;;20.35;56.46
60319;BME280;46163;52.306;5.634;2023-05-14T09:24:33;101753.03;;;20.35;56.52
60319;BME280;46163;52.306;5.634;2023-05-14T09:27:01;101760.72;;;20.43;56.08
60319;BME280;46163;52.306;5.634;2023-05-14T09:29:28;101767.81;;;20.44;56.17
60319;BME280;46163;52.306;5.634;2023-05-14T09:31:55;101762.97;;;20.46;56.18
60319;BME280;46163;52.306;5.634;2023-05-14T09:34:28;101757.00;;;20.44;56.04
60319;BME280;46163;52.306;5.634;2023-05-14T09:39:28;101758.22;;;20.53;55.87
60319;BME280;46163;52.306;5.634;2023-05-14T09:41:54;101744.28;;;20.44;55.87
60319;BME280;46163;52.306;5.634;2023-05-14T09:44:20;101748.81;;;20.55;55.99
60319;BME280;46163;52.306;5.634;2023-05-14T09:46:47;101738.56;;;20.57;55.78
60319;BME280;46163;52.306;5.634;2023-05-14T09:49:13;101735.38;;;20.60;55.81
60319;BME280;46163;52.306;5.634;2023-05-14T09:51:39;101739.47;;;20.63;56.02
60319;BME280;46163;52.306;5.634;2023-05-14T09:54:05;101740.28;;;20.64;55.52
60319;BME280;46163;52.306;5.634;2023-05-14T09:56:32;101744.16;;;20.68;55.71
60319;BME280;46163;52.306;5.634;2023-05-14T09:58:58;101742.00;;;20.70;55.33
60319;BME280;46163;52.306;5.634;2023-05-14T10:01:24;101746.09;;;20.72;55.81
60319;BME280;46163;52.306;5.634;2023-05-14T10:03:52;101736.91;;;20.73;55.77
60319;BME280;46163;52.306;5.634;2023-05-14T10:06:21;101743.72;;;20.76;55.80
60319;BME280;46163;52.306;5.634;2023-05-14T10:08:48;101733.75;;;20.76;55.59
60319;BME280;46163;52.306;5.634;2023-05-14T10:11:23;101736.44;;;20.76;55.46
60319;BME280;46163;52.306;5.634;2023-05-14T10:14:10;101733.81;;;20.81;55.54
60319;BME280;46163;52.306;5.634;2023-05-14T10:16:52;101730.84;;;20.83;55.54
60319;BME280;46163;52.306;5.634;2023-05-14T10:19:19;101724.97;;;20.86;55.60
60319;BME280;46163;52.306;5.634;2023-05-14T10:22:02;101738.81;;;20.89;55.57
60319;BME280;46163;52.306;5.634;2023-05-14T10:24:29;101724.19;;;20.91;55.33
60319;BME280;46163;52.306;5.634;2023-05-14T10:26:55;101721.50;;;20.91;55.39
60319;BME280;46163;52.306;5.634;2023-05-14T10:29:36;101718.28;;;20.94;55.54
60319;BME280;46163;52.306;5.634;2023-05-14T10:32:04;101722.41;;;20.96;55.24
60319;BME280;46163;52.306;5.634;2023-05-14T10:37:10;101717.31;;;21.00;55.63
60319;BME280;46163;52.306;5.634;2023-05-14T10:39:53;101724.34;;;21.01;55.42
60319;BME280;46163;52.306;5.634;2023-05-14T10:42:26;101714.13;;;21.03;55.64
60319;BME280;46163;52.306;5.634;2023-05-14T10:44:54;101696.16;;;20.97;55.41
60319;BME280;46163;52.306;5.634;2023-05-14T10:47:24;101710.91;;;21.06;55.45
60319;BME280;46163;52.306;5.634;2023-05-14T10:49:51;101711.22;;;21.09;55.05
60319;BME280;46163;52.306;5.634;2023-05-14T10:52:19;101701.19;;;21.10;55.08
60319;BME280;46163;52.306;5.634;2023-05-14T10:54:48;101701.19;;;21.10;54.97
60319;BME280;46163;52.306;5.634;2023-05-14T10:57:16;101699.38;;;21.15;55.27
60319;BME280;46163;52.306;5.634;2023-05-14T10:59:42;101697.25;;;21.17;55.07
60319;BME280;46163;52.306;5.634;2023-05-14T11:02:22;101693.16;;;21.15;55.17
60319;BME280;46163;52.306;5.634;2023-05-14T11:04:53;101694.63;;;21.23;54.87
60319;BME280;46163;52.306;5.634;2023-05-14T11:07:23;101687.31;;;21.23;55.01
60319;BME280;46163;52.306;5.634;2023-05-14T11:09:50;101680.81;;;21.24;54.79
60319;BME280;46163;52.306;5.634;2023-05-14T11:12:20;101676.50;;;21.23;54.52
60319;BME280;46163;52.306;5.634;2023-05-14T11:14:46;101685.53;;;21.29;54.40
60319;BME280;46163;52.306;5.634;2023-05-14T11:17:11;101680.13;;;21.29;54.02
60319;BME280;46163;52.306;5.634;2023-05-14T11:19:37;101686.09;;;21.31;54.24
60319;BME280;46163;52.306;5.634;2023-05-14T11:22:02;101676.91;;;21.32;54.11
60319;BME280;46163;52.306;5.634;2023-05-14T11:24:28;101673.94;;;21.33;53.97
60319;BME280;46163;52.306;5.634;2023-05-14T11:26:54;101675.00;;;21.32;54.01
60319;BME280;46163;52.306;5.634;2023-05-14T11:29:20;101672.59;;;21.36;53.58
60319;BME280;46163;52.306;5.634;2023-05-14T11:31:46;101665.56;;;21.35;53.42
60319;BME280;46163;52.306;5.634;2023-05-14T11:34:14;101651.38;;;21.28;53.67
60319;BME280;46163;52.306;5.634;2023-05-14T11:36:39;101666.69;;;21.39;53.84
60319;BME280;46163;52.306;5.634;2023-05-14T11:39:06;101664.47;;;21.36;53.60
60319;BME280;46163;52.306;5.634;2023-05-14T11:41:32;101657.50;;;21.40;53.50
60319;BME280;46163;52.306;5.634;2023-05-14T11:43:57;101652.34;;;21.38;53.24
60319;BME280;46163;52.306;5.634;2023-05-14T11:46:23;101641.69;;;21.32;52.91
60319;BME280;46163;52.306;5.634;2023-05-14T11:48:50;101634.41;;;21.32;52.95
60319;BME280;46163;52.306;5.634;2023-05-14T11:51:15;101641.56;;;21.43;53.20
60319;BME280;46163;52.306;5.634;2023-05-14T11:53:41;101641.56;;;21.43;52.84
60319;BME280;46163;52.306;5.634;2023-05-14T11:56:06;101640.00;;;21.48;52.70
60319;BME280;46163;52.306;5.634;2023-05-14T11:58:32;101654.09;;;21.50;52.75
60319;BME280;46163;52.306;5.634;2023-05-14T12:00:58;101649.22;;;21.52;53.79
60319;BME280;46163;52.306;5.634;2023-05-14T12:03:24;101646.25;;;21.53;54.01
60319;BME280;46163;52.306;5.634;2023-05-14T12:06:08;101645.41;;;21.48;54.20
60319;BME280;46163;52.306;5.634;2023-05-14T12:08:34;101643.88;;;21.57;54.16
60319;BME280;46163;52.306;5.634;2023-05-14T12:11:02;101636.84;;;21.56;54.22
60319;BME280;46163;52.306;5.634;2023-05-14T12:13:31;101638.22;;;21.58;54.14
60319;BME280;46163;52.306;5.634;2023-05-14T12:15:59;101629.00;;;21.59;54.41
60319;BME280;46163;52.306;5.634;2023-05-14T12:18:30;101626.56;;;21.58;54.36
60319;BME280;46163;52.306;5.634;2023-05-14T12:21:01;101624.66;;;21.58;54.21
60319;BME280;46163;52.306;5.634;2023-05-14T12:23:29;101631.19;;;21.62;54.32
60319;BME280;46163;52.306;5.634;2023-05-14T12:25:55;101630.16;;;21.63;54.24
60319;BME280;46163;52.306;5.634;2023-05-14T12:28:25;101628.00;;;21.65;54.34
60319;BME280;46163;52.306;5.634;2023-05-14T12:30:56;101625.84;;;21.67;54.50
60319;BME280;46163;52.306;5.634;2023-05-14T12:33:21;101618.78;;;21.66;54.59
60319;BME280;46163;52.306;5.634;2023-05-14T12:35:51;101614.72;;;21.64;54.52
60319;BME280;46163;52.306;5.634;2023-05-14T12:38:18;101615.31;;;21.71;54.56
60319;BME280;46163;52.306;5.634;2023-05-14T12:40:44;101613.19;;;21.73;54.40
60319;BME280;46163;52.306;5.634;2023-05-14T12:43:10;101612.91;;;21.75;54.44
60319;BME280;46163;52.306;5.634;2023-05-14T12:45:35;101614.56;;;21.76;54.38
60319;BME280;46163;52.306;5.634;2023-05-14T12:48:01;101601.75;;;21.71;54.17
60319;BME280;46163;52.306;5.634;2023-05-14T12:50:28;101608.59;;;21.79;54.43
60319;BME280;46163;52.306;5.634;2023-05-14T12:52:53;101603.19;;;21.79;54.08
60319;BME280;46163;52.306;5.634;2023-05-14T12:55:19;101594.78;;;21.75;53.99
60319;BME280;46163;52.306;5.634;2023-05-14T12:57:45;101604.88;;;21.85;54.23
60319;BME280;46163;52.306;5.634;2023-05-14T13:00:11;101597.56;;;21.85;54.19
60319;BME280;46163;52.306;5.634;2023-05-14T13:02:37;101597.03;;;21.88;54.20